world map with LKN marked

LKN - Airport

This information may not be accurate or current and is not valid for navigation or flight planning. No warranty of fitness for any purpose is made or implied.

flag of Norway

Donate via PayPal

Additional information is available on the NEW Great Circle Mapper

Location
City:  Leknes, Nordland, Norway
ICAO / IATA:ENLK / LKN

Details
Type:Airport (Aerodrome, Airfield)
Latitude:68°09'09"N (68.152500)
Longitude:13°36'34"E (13.609444)
Elevation:78 ft (24 m)
Runways:1
Longest:2881 × 98 ft (878 × 30 m)

Time
Timezone:UTC+1 (DST+4)
Local Time:

Weather
METAR:ENLK  181350Z 28011G23KT 220V340 9999 3000NE -SHSN FEW016CB BKN025 M01/M04 Q0997

Related Locations
Nearby:
Farthest:NZTB: 11650 mi / 18750 km
Terra Nova Bay [Mario Zucchelli Station], AQ

Find:

   beyond  
but within

Other Information
Maps:
Sources:

  


 


Great Circle Mapper   Great Circle Mapper
Great Circle Mapper FAQ   Great Circle Mapper FAQ
  Karl's Home Page
KLSē   KLSē Home
   GC on Facebook
Airlines of the World   Airlines of the World
Donate via PayPal


Copyright © 2004-2019, Karl L. Swartz. All rights reserved.
All trademarks mentioned herein belong to their respective owners.

Please see credits for attribution and copyright information.

Karl Swartz <karl@kls2.com>
  Powered by FreeBSD
Valid HTML 4.01!
Labeled with ICRA
hCard Microformat
Geo Microformat